Time;durP1;ratioP1;P1;durP2;ratioP2;P2;SDS_P1;SDS_P2;PMS_P1;PMS_P2;Temp;Humidity;BMP_temperature;BMP_pressure;BME280_temperature;BME280_humidity;BME280_pressure;Samples;Min_cycle;Max_cycle;Signal;HPM_P1;HPM_P2
2022/07/31 00:01:31;;;;;;;12.90;3.20;;;;;;;23.42;63.20;101363.47;5025499;28;20125;-77
2022/07/31 00:03:58;;;;;;;8.90;2.65;;;;;;;23.39;63.82;101361.59;5025300;28;20955;-77
2022/07/31 00:06:24;;;;;;;5.95;2.63;;;;;;;23.38;64.07;101364.91;5025845;28;20041;-77
2022/07/31 00:08:51;;;;;;;11.05;3.00;;;;;;;23.35;64.20;101357.38;5020291;28;20053;-77
2022/07/31 00:11:18;;;;;;;7.57;2.80;;;;;;;23.35;63.52;101351.72;5022700;28;20068;-76
2022/07/31 00:13:44;;;;;;;6.90;2.75;;;;;;;23.32;64.21;101353.44;5026059;28;20931;-77
2022/07/31 00:16:24;;;;;;;6.55;2.80;;;;;;;23.28;64.58;101357.69;5024581;28;20044;-74
2022/07/31 00:18:51;;;;;;;7.00;3.03;;;;;;;23.22;64.94;101351.84;5025193;28;20056;-76
2022/07/31 00:21:18;;;;;;;5.93;2.60;;;;;;;23.19;65.67;101349.97;5022355;28;20166;-77
2022/07/31 00:23:44;;;;;;;5.97;3.08;;;;;;;23.17;66.18;101349.63;5026383;28;20139;-77
2022/07/31 00:26:11;;;;;;;5.43;2.65;;;;;;;23.15;66.52;101346.47;5024954;28;20045;-74
2022/07/31 00:28:37;;;;;;;8.85;2.90;;;;;;;23.09;66.68;101339.13;5021632;28;20049;-77
2022/07/31 00:31:04;;;;;;;7.20;3.00;;;;;;;23.08;66.68;101341.16;5024256;28;21770;-73
2022/07/31 00:33:30;;;;;;;6.82;2.88;;;;;;;23.04;67.54;101343.34;5025496;28;20057;-77
2022/07/31 00:35:57;;;;;;;9.45;2.97;;;;;;;22.97;68.07;101338.00;5027267;28;20049;-74
2022/07/31 00:38:24;;;;;;;5.55;3.40;;;;;;;22.90;69.05;101337.50;5026364;28;20159;-76
2022/07/31 00:40:52;;;;;;;5.40;3.10;;;;;;;22.85;69.08;101333.28;5023911;28;20060;-76
2022/07/31 00:43:19;;;;;;;8.93;3.10;;;;;;;22.77;70.32;101337.63;5022013;28;20071;-75
2022/07/31 00:45:46;;;;;;;7.63;3.00;;;;;;;22.65;70.86;101339.31;5022803;28;20052;-76
2022/07/31 00:48:21;;;;;;;5.95;3.28;;;;;;;22.59;71.64;101338.38;5024431;28;20872;-75
2022/07/31 00:50:49;;;;;;;9.63;2.80;;;;;;;22.54;71.85;101338.19;5022196;28;20049;-79
2022/07/31 00:53:16;;;;;;;12.40;3.03;;;;;;;22.45;72.07;101318.41;5018360;28;20128;-77
2022/07/31 00:55:42;;;;;;;6.28;2.85;;;;;;;22.42;72.29;101324.97;5023963;28;20866;-78
2022/07/31 00:58:18;;;;;;;12.05;2.90;;;;;;;22.36;71.79;101332.44;5021283;28;20052;-77
2022/07/31 01:00:45;;;;;;;6.95;2.78;;;;;;;22.30;72.27;101318.19;5024481;28;20056;-76
2022/07/31 01:03:13;;;;;;;12.23;3.08;;;;;;;22.24;73.12;101319.25;5022203;28;20048;-76
2022/07/31 01:05:40;;;;;;;7.10;2.80;;;;;;;22.17;73.81;101322.34;5020224;28;20050;-78
2022/07/31 01:08:07;;;;;;;5.63;3.00;;;;;;;22.11;73.54;101324.19;5023326;28;20588;-77
2022/07/31 01:10:53;;;;;;;8.50;2.97;;;;;;;22.01;76.92;101316.94;5023360;28;20048;-74
2022/07/31 01:13:29;;;;;;;7.38;3.45;;;;;;;21.94;76.42;101320.78;5021148;28;20916;-75
2022/07/31 01:15:59;;;;;;;8.75;3.08;;;;;;;21.89;77.02;101317.78;5023261;28;20060;-76
2022/07/31 01:18:30;;;;;;;6.72;3.10;;;;;;;21.87;77.80;101321.06;5019985;28;20871;-76
2022/07/31 01:21:02;;;;;;;9.40;3.47;;;;;;;21.82;78.16;101318.84;5019747;28;20076;-75
2022/07/31 01:23:52;;;;;;;7.20;3.10;;;;;;;21.70;79.66;101318.91;5020591;28;20055;-77
2022/07/31 01:26:36;;;;;;;7.32;3.10;;;;;;;21.67;80.12;101322.63;5020762;28;20040;-73
2022/07/31 01:29:24;;;;;;;8.93;3.25;;;;;;;21.61;79.79;101327.28;5032701;28;20055;-76
2022/07/31 01:32:00;;;;;;;7.40;3.10;;;;;;;21.57;78.89;101321.00;5021287;28;20058;-74
2022/07/31 01:34:43;;;;;;;7.15;3.15;;;;;;;21.50;80.10;101329.72;5022307;28;20084;-74
2022/07/31 01:37:16;;;;;;;9.93;3.50;;;;;;;21.42;81.84;101314.31;5025054;28;20114;-76
2022/07/31 01:39:49;;;;;;;4.72;2.88;;;;;;;21.37;80.49;101310.06;5022664;28;20697;-75
2022/07/31 01:42:18;;;;;;;9.45;3.55;;;;;;;21.31;81.48;101314.69;5023033;28;20719;-76
2022/07/31 01:44:50;;;;;;;6.72;3.38;;;;;;;21.29;82.29;101307.97;5022277;28;20564;-73
2022/07/31 01:47:20;;;;;;;8.50;3.60;;;;;;;21.26;82.90;101314.50;5019287;28;20152;-76
2022/07/31 01:49:50;;;;;;;7.07;3.22;;;;;;;21.25;82.82;101307.28;5020555;28;20052;-77
2022/07/31 01:52:18;;;;;;;9.48;4.05;;;;;;;21.14;82.95;101299.22;5023485;28;20800;-76
2022/07/31 01:54:46;;;;;;;12.13;3.55;;;;;;;21.12;83.87;101300.94;5025681;28;20053;-74
2022/07/31 01:57:14;;;;;;;14.75;4.28;;;;;;;21.08;83.72;101308.69;5059929;28;20087;-78
2022/07/31 01:59:46;;;;;;;6.45;3.55;;;;;;;21.05;84.89;101301.16;5063859;28;20072;-72
2022/07/31 02:02:14;;;;;;;7.40;3.75;;;;;;;21.05;85.10;101304.75;5061857;28;20557;-72
2022/07/31 02:04:43;;;;;;;8.75;4.00;;;;;;;21.03;85.53;101306.47;5056619;28;20048;-74
2022/07/31 02:07:09;;;;;;;11.55;4.38;;;;;;;21.02;85.06;101304.91;5066407;28;20127;-71
2022/07/31 02:09:36;;;;;;;8.65;3.40;;;;;;;21.01;84.46;101295.66;5055079;28;20457;-70
2022/07/31 02:12:23;;;;;;;10.80;4.82;;;;;;;20.98;86.28;101295.78;5050699;28;20045;-72
2022/07/31 02:15:02;;;;;;;8.77;3.60;;;;;;;20.95;86.54;101296.72;5048606;28;20045;-72
2022/07/31 02:17:29;;;;;;;6.75;3.60;;;;;;;20.91;85.80;101291.16;5048956;28;20152;-71
2022/07/31 02:19:57;;;;;;;8.45;4.03;;;;;;;20.89;85.19;101290.81;5062386;28;20131;-75
2022/07/31 02:22:26;;;;;;;7.93;3.65;;;;;;;20.85;85.87;101292.19;5061986;28;20501;-72
2022/07/31 02:24:52;;;;;;;10.07;3.78;;;;;;;20.75;87.57;101279.28;5048467;28;20067;-73
2022/07/31 02:27:22;;;;;;;9.85;3.60;;;;;;;20.74;86.52;101292.56;5056573;28;20133;-71
2022/07/31 02:30:09;;;;;;;12.02;3.72;;;;;;;20.68;86.70;101282.34;5061147;28;20048;-71
2022/07/31 02:32:38;;;;;;;8.63;3.72;;;;;;;20.65;87.98;101281.19;5058413;28;20050;-74
2022/07/31 02:35:06;;;;;;;9.50;4.28;;;;;;;20.63;88.12;101286.50;5060634;28;20052;-67
2022/07/31 02:37:36;;;;;;;7.80;4.00;;;;;;;20.62;87.80;101281.34;5061640;28;20135;-76
2022/07/31 02:40:04;;;;;;;9.35;4.05;;;;;;;20.56;88.29;101275.50;5065477;28;20481;-74
2022/07/31 02:42:31;;;;;;;9.93;3.78;;;;;;;20.49;88.68;101263.69;5064653;28;20048;-69
2022/07/31 02:44:59;;;;;;;7.43;3.85;;;;;;;20.53;89.08;101269.97;5061260;28;20128;-72
2022/07/31 02:47:27;;;;;;;8.80;4.03;;;;;;;20.52;89.26;101265.59;5069244;28;20106;-71
2022/07/31 02:49:56;;;;;;;8.55;3.95;;;;;;;20.49;89.26;101263.69;5061118;28;20921;-75
2022/07/31 02:52:24;;;;;;;8.48;4.40;;;;;;;20.49;89.54;101261.69;5059996;28;20048;-71
2022/07/31 02:54:51;;;;;;;11.82;4.40;;;;;;;20.43;89.93;101253.00;5056493;28;20080;-73
2022/07/31 02:57:18;;;;;;;11.57;4.30;;;;;;;20.38;89.83;101254.84;5063123;28;20124;-71
2022/07/31 02:59:44;;;;;;;12.18;4.55;;;;;;;20.36;90.32;101258.84;5062699;28;20056;-75
2022/07/31 03:02:11;;;;;;;9.77;4.53;;;;;;;20.34;90.41;101258.53;5063835;28;20131;-71
2022/07/31 03:04:37;;;;;;;21.38;5.97;;;;;;;20.27;90.74;101244.72;5060736;28;20056;-74
2022/07/31 03:07:04;;;;;;;8.80;4.72;;;;;;;20.27;91.15;101253.16;5068091;28;20422;-71
2022/07/31 03:09:30;;;;;;;7.32;3.70;;;;;;;20.22;91.44;101255.75;5065074;28;20106;-74
2022/07/31 03:11:57;;;;;;;11.85;4.25;;;;;;;20.23;91.18;101257.31;5062303;28;20064;-74
2022/07/31 03:14:31;;;;;;;9.00;3.90;;;;;;;20.23;91.79;101260.13;5069970;28;20044;-71
2022/07/31 03:16:59;;;;;;;9.55;4.45;;;;;;;20.21;91.31;101249.31;5067065;28;20094;-71
2022/07/31 03:19:27;;;;;;;8.77;3.78;;;;;;;20.22;92.32;101259.31;5068301;28;20518;-72
2022/07/31 03:21:55;;;;;;;9.40;4.72;;;;;;;20.20;92.20;101258.22;5060239;28;20049;-72
2022/07/31 03:24:21;;;;;;;9.07;4.38;;;;;;;20.19;91.97;101248.22;5063833;28;20624;-73
2022/07/31 03:26:48;;;;;;;8.75;4.53;;;;;;;20.18;92.26;101258.66;5057313;28;20056;-71
2022/07/31 03:29:14;;;;;;;7.50;4.15;;;;;;;20.18;92.31;101257.84;5066999;28;20079;-70
2022/07/31 03:32:01;;;;;;;9.65;3.55;;;;;;;20.16;91.78;101249.91;5059399;28;20052;-73
2022/07/31 03:34:28;;;;;;;10.13;4.32;;;;;;;20.13;91.46;101250.81;5065794;28;20406;-74
2022/07/31 03:36:54;;;;;;;9.63;4.43;;;;;;;20.12;91.43;101254.81;5062569;28;20052;-75
2022/07/31 03:39:21;;;;;;;9.75;4.57;;;;;;;20.11;91.52;101252.47;5064737;28;20044;-71
2022/07/31 03:41:49;;;;;;;9.50;4.30;;;;;;;20.11;91.36;101247.66;5063253;28;20079;-74
2022/07/31 03:44:15;;;;;;;13.95;4.90;;;;;;;20.12;91.93;101246.41;5080973;28;20059;-72
2022/07/31 03:46:42;;;;;;;9.45;4.35;;;;;;;20.11;91.89;101244.84;5068327;28;20095;-73
2022/07/31 03:49:09;;;;;;;7.80;3.97;;;;;;;20.10;91.86;101243.25;5067599;28;20051;-75
2022/07/31 03:51:35;;;;;;;9.93;4.35;;;;;;;20.11;91.38;101246.84;5080434;28;20079;-70
2022/07/31 03:54:02;;;;;;;8.68;4.50;;;;;;;20.10;91.26;101246.06;5059774;28;20524;-74
2022/07/31 03:56:30;;;;;;;7.90;3.90;;;;;;;20.09;92.53;101236.03;5063157;28;20135;-73
2022/07/31 03:58:56;;;;;;;10.65;4.53;;;;;;;20.10;92.99;101239.63;5064456;28;20143;-73
2022/07/31 04:01:25;;;;;;;8.75;4.68;;;;;;;20.08;92.56;101237.28;5061079;28;20143;-75
2022/07/31 04:04:12;;;;;;;10.85;4.50;;;;;;;20.12;92.74;101242.81;5062180;28;20056;-76
2022/07/31 04:06:39;;;;;;;12.02;5.32;;;;;;;20.09;93.05;101238.84;5060366;28;20037;-72
2022/07/31 04:09:07;;;;;;;10.93;4.35;;;;;;;20.10;93.51;101246.06;5059896;28;20140;-72
2022/07/31 04:11:44;;;;;;;9.30;4.55;;;;;;;20.12;93.52;101242.81;5057187;28;20044;-72
2022/07/31 04:14:11;;;;;;;10.88;4.65;;;;;;;20.16;93.59;101240.69;5056642;28;20063;-72
2022/07/31 04:16:37;;;;;;;9.52;4.60;;;;;;;20.17;93.64;101239.44;5058178;28;20505;-71
2022/07/31 04:19:04;;;;;;;10.00;4.93;;;;;;;20.19;92.64;101251.78;5055093;28;20162;-72
2022/07/31 04:21:30;;;;;;;11.20;4.72;;;;;;;20.19;92.15;101239.78;5061745;28;20846;-71
2022/07/31 04:23:57;;;;;;;8.35;4.22;;;;;;;20.22;91.97;101242.47;5060400;28;20072;-72
2022/07/31 04:26:24;;;;;;;8.82;4.28;;;;;;;20.22;91.75;101236.84;5063343;28;20044;-74
2022/07/31 04:28:52;;;;;;;7.93;4.50;;;;;;;20.28;91.46;101235.06;5064681;28;20063;-74
2022/07/31 04:31:18;;;;;;;9.52;4.88;;;;;;;20.32;92.16;101232.91;5056259;28;20139;-71
2022/07/31 04:33:45;;;;;;;9.20;4.68;;;;;;;20.34;92.13;101233.25;5056890;28;20055;-75
2022/07/31 04:36:18;;;;;;;10.55;4.47;;;;;;;20.39;91.83;101240.34;5060816;28;20044;-72
2022/07/31 04:38:57;;;;;;;9.98;4.80;;;;;;;20.41;92.17;101235.03;5057331;28;20485;-72
2022/07/31 04:41:24;;;;;;;10.30;4.20;;;;;;;20.45;92.29;101230.06;5055416;28;20139;-75
2022/07/31 04:43:51;;;;;;;7.75;4.03;;;;;;;20.48;92.38;101239.63;5060818;28;20132;-72
2022/07/31 04:46:17;;;;;;;11.13;4.65;;;;;;;20.47;92.52;101241.66;5055968;28;20051;-72
2022/07/31 04:48:44;;;;;;;7.75;4.43;;;;;;;20.50;92.73;101248.38;5066420;28;20049;-75
2022/07/31 04:51:22;;;;;;;7.53;4.28;;;;;;;20.54;93.58;101246.25;5062470;28;20049;-73
2022/07/31 04:53:50;;;;;;;8.80;4.22;;;;;;;20.57;92.71;101254.56;5054143;28;20068;-72
2022/07/31 04:56:32;;;;;;;10.10;4.68;;;;;;;20.59;92.83;101248.50;5059873;28;20063;-75
2022/07/31 04:59:05;;;;;;;9.25;4.88;;;;;;;20.60;92.77;101234.00;5057147;28;20048;-71
2022/07/31 05:01:32;;;;;;;8.70;4.60;;;;;;;20.66;92.55;101239.81;5053671;28;20103;-72
2022/07/31 05:04:00;;;;;;;10.13;4.75;;;;;;;20.67;93.09;101239.38;5060897;28;20174;-72
2022/07/31 05:06:41;;;;;;;12.85;4.60;;;;;;;20.73;93.66;101242.38;5056582;28;20049;-72
2022/07/31 05:09:11;;;;;;;8.95;4.50;;;;;;;20.79;93.27;101240.56;5050695;28;20144;-73
2022/07/31 05:11:45;;;;;;;8.68;4.57;;;;;;;20.85;92.59;101235.94;5055555;28;20063;-73
2022/07/31 05:14:13;;;;;;;12.45;4.55;;;;;;;20.92;90.85;101244.13;5061510;28;20139;-72
2022/07/31 05:16:40;;;;;;;8.60;4.35;;;;;;;20.90;89.52;101244.59;5062522;28;20582;-75
2022/07/31 05:19:07;;;;;;;11.60;4.45;;;;;;;20.94;88.65;101248.09;5058274;28;20910;-75
2022/07/31 05:21:42;;;;;;;9.52;4.05;;;;;;;21.04;88.18;101237.69;5047203;28;20733;-72
2022/07/31 05:24:19;;;;;;;9.02;4.13;;;;;;;21.12;87.99;101236.22;5060095;28;20064;-75
2022/07/31 05:27:02;;;;;;;10.70;4.90;;;;;;;21.20;87.80;101237.50;5058024;28;20044;-71
2022/07/31 05:29:29;;;;;;;11.35;4.78;;;;;;;21.19;87.36;101239.53;5060561;28;20058;-73
2022/07/31 05:31:56;;;;;;;11.75;5.18;;;;;;;21.29;87.03;101237.59;5051254;28;20044;-72
2022/07/31 05:34:28;;;;;;;9.30;4.07;;;;;;;21.34;86.58;101245.44;5060842;28;20098;-72
2022/07/31 05:36:57;;;;;;;8.98;4.20;;;;;;;21.38;86.48;101237.63;5055568;28;20047;-72
2022/07/31 05:39:24;;;;;;;9.48;4.40;;;;;;;21.46;85.88;101244.59;5052180;28;20178;-72
2022/07/31 05:41:51;;;;;;;12.57;4.90;;;;;;;21.48;86.43;101245.69;5050172;28;21087;-76
2022/07/31 05:44:18;;;;;;;10.35;4.10;;;;;;;21.53;85.70;101249.97;5054808;28;20052;-70
2022/07/31 05:46:45;;;;;;;11.23;3.90;;;;;;;21.59;84.94;101256.53;5053969;28;20128;-75
2022/07/31 05:49:11;;;;;;;10.73;4.05;;;;;;;21.62;85.01;101258.44;5049963;28;20141;-74
2022/07/31 05:51:42;;;;;;;8.35;4.00;;;;;;;21.65;84.61;101258.31;5054812;28;20584;-73
2022/07/31 05:54:08;;;;;;;11.30;4.68;;;;;;;21.67;84.35;101255.06;5056296;28;20048;-69
2022/07/31 05:56:35;;;;;;;10.32;3.78;;;;;;;21.62;83.76;101255.63;5058218;28;20135;-71
2022/07/31 05:59:01;;;;;;;7.55;4.28;;;;;;;21.77;84.65;101260.28;5053725;28;20548;-69
2022/07/31 06:01:28;;;;;;;12.82;4.53;;;;;;;21.79;84.08;101263.44;5057326;28;20151;-72
2022/07/31 06:03:54;;;;;;;11.30;4.38;;;;;;;21.78;83.83;101259.06;5051132;28;20056;-71
2022/07/31 06:06:21;;;;;;;14.07;5.25;;;;;;;21.86;83.95;101254.72;5062953;28;20044;-69
2022/07/31 06:08:47;;;;;;;11.50;4.40;;;;;;;21.88;84.50;101252.22;5065420;28;20110;-73
2022/07/31 06:11:14;;;;;;;12.68;5.03;;;;;;;21.91;84.06;101253.34;5063621;28;20060;-71
2022/07/31 06:13:42;;;;;;;8.73;4.63;;;;;;;21.97;84.07;101246.63;5061793;28;20136;-70
2022/07/31 06:16:14;;;;;;;12.63;4.60;;;;;;;22.05;83.63;101241.50;5060635;28;20195;-70
2022/07/31 06:18:41;;;;;;;13.15;5.35;;;;;;;22.05;83.92;101236.66;5070542;28;20496;-69
2022/07/31 06:21:08;;;;;;;13.32;5.25;;;;;;;22.09;83.10;101242.94;5061411;28;20109;-75
2022/07/31 06:23:35;;;;;;;13.20;5.75;;;;;;;22.18;83.11;101239.34;5060121;28;20049;-69
2022/07/31 06:26:02;;;;;;;13.82;5.22;;;;;;;22.16;82.50;101247.47;5059821;28;20052;-75
2022/07/31 06:28:30;;;;;;;17.75;5.70;;;;;;;22.25;82.78;101239.06;5058817;28;20410;-70
2022/07/31 06:31:19;;;;;;;12.77;5.88;;;;;;;22.33;82.83;101240.34;5069698;28;20610;-72
2022/07/31 06:33:46;;;;;;;11.18;4.85;;;;;;;22.32;83.31;101241.59;5066237;28;20078;-70
2022/07/31 06:36:15;;;;;;;15.40;6.25;;;;;;;22.46;82.22;101244.63;5057409;28;20064;-70
2022/07/31 06:38:41;;;;;;;13.05;5.85;;;;;;;22.54;82.25;101245.13;5056534;28;20053;-70
2022/07/31 06:41:08;;;;;;;11.70;5.45;;;;;;;22.54;82.92;101250.75;5065922;28;20053;-70
2022/07/31 06:43:35;;;;;;;12.98;6.65;;;;;;;22.53;82.54;101243.56;5064222;28;20052;-73
2022/07/31 06:46:01;;;;;;;15.23;5.50;;;;;;;22.61;82.77;101242.78;5067789;28;20040;-72
2022/07/31 06:48:28;;;;;;;16.23;6.47;;;;;;;22.63;82.46;101242.31;5064383;28;20500;-69
2022/07/31 06:50:55;;;;;;;14.43;6.97;;;;;;;22.61;82.24;101247.63;5067257;28;20052;-71
2022/07/31 06:53:42;;;;;;;20.27;7.72;;;;;;;22.57;82.48;101249.81;5058579;28;20097;-71
2022/07/31 06:56:08;;;;;;;7.68;3.58;;;;;;;22.40;83.83;101251.31;5058597;28;20041;-69
2022/07/31 06:58:35;;;;;;;14.00;7.03;;;;;;;22.46;84.34;101249.47;5064471;28;20052;-71
2022/07/31 07:01:02;;;;;;;13.60;5.57;;;;;;;22.47;84.67;101251.03;5055840;28;20127;-72
2022/07/31 07:03:28;;;;;;;19.55;7.10;;;;;;;22.51;84.71;101244.03;5061764;28;20045;-69
2022/07/31 07:05:55;;;;;;;18.40;6.63;;;;;;;22.50;85.17;101244.47;5051311;28;20080;-70
2022/07/31 07:08:22;;;;;;;19.65;6.30;;;;;;;22.52;85.84;101239.94;5054093;28;20037;-71
2022/07/31 07:10:48;;;;;;;16.30;6.35;;;;;;;22.46;85.25;101236.16;5057573;28;20122;-71
2022/07/31 07:13:15;;;;;;;13.68;5.75;;;;;;;22.49;85.75;101243.72;5056831;28;20073;-69
2022/07/31 07:15:42;;;;;;;8.43;3.60;;;;;;;22.47;86.24;101245.38;5055671;28;20519;-70
2022/07/31 07:18:08;;;;;;;12.82;6.55;;;;;;;22.53;86.20;101244.34;5060965;28;20079;-69
2022/07/31 07:20:35;;;;;;;17.63;7.20;;;;;;;22.63;87.48;101240.31;5055144;28;20053;-70
2022/07/31 07:23:02;;;;;;;15.95;7.10;;;;;;;22.66;86.55;101236.53;5064452;28;20070;-70
2022/07/31 07:25:29;;;;;;;11.85;5.50;;;;;;;22.65;86.72;101234.97;5050977;28;20893;-69
2022/07/31 07:27:55;;;;;;;17.55;8.50;;;;;;;22.68;87.31;101244.53;5058395;28;20047;-69
2022/07/31 07:30:22;;;;;;;7.15;2.67;;;;;;;22.60;88.00;101243.25;5060659;28;20079;-70
2022/07/31 07:32:49;;;;;;;20.88;6.97;;;;;;;22.73;87.61;101230.59;5070674;28;20076;-69
2022/07/31 07:35:15;;;;;;;16.67;7.97;;;;;;;22.65;86.31;101237.78;5064274;28;20132;-69
2022/07/31 07:37:42;;;;;;;9.80;3.97;;;;;;;22.65;86.53;101232.13;5061412;28;20040;-75
2022/07/31 07:40:09;;;;;;;16.20;7.72;;;;;;;22.86;85.76;101232.47;5063485;28;20135;-69
2022/07/31 07:42:36;;;;;;;15.02;6.03;;;;;;;22.92;85.82;101219.31;5054959;28;20091;-69
2022/07/31 07:45:03;;;;;;;9.85;5.45;;;;;;;22.92;82.96;101217.28;5060801;28;20048;-66
2022/07/31 07:47:34;;;;;;;21.33;8.38;;;;;;;22.82;82.79;101214.91;5052724;28;20047;-70
2022/07/31 07:50:21;;;;;;;11.32;4.22;;;;;;;22.84;82.69;101223.72;5053436;28;20052;-69
2022/07/31 07:52:52;;;;;;;3.45;1.67;;;;;;;22.82;83.00;101221.34;5065021;28;20109;-71
2022/07/31 07:55:19;;;;;;;10.10;3.17;;;;;;;22.78;83.07;101212.28;5049150;28;20053;-70
2022/07/31 07:57:45;;;;;;;6.65;3.55;;;;;;;22.85;83.04;101230.91;5018653;28;1148302;-71
2022/07/31 08:00:12;;;;;;;18.33;7.15;;;;;;;23.06;82.42;101225.13;5057416;28;20582;-71
2022/07/31 08:02:41;;;;;;;14.15;5.45;;;;;;;23.05;82.08;101225.59;5055260;28;20429;-69
2022/07/31 08:05:08;;;;;;;13.82;6.00;;;;;;;22.93;82.78;101216.03;5054365;28;20061;-71
2022/07/31 08:07:37;;;;;;;5.15;2.05;;;;;;;22.80;82.53;101218.22;5058684;28;20449;-72
2022/07/31 08:10:08;;;;;;;3.65;1.60;;;;;;;22.85;84.21;101225.28;5059638;28;20052;-69
2022/07/31 08:12:36;;;;;;;8.02;3.47;;;;;;;22.84;83.89;101227.28;5060952;28;20143;-72
2022/07/31 08:15:04;;;;;;;5.03;2.28;;;;;;;22.77;83.24;101219.16;5060293;28;20483;-70
2022/07/31 08:17:31;;;;;;;8.60;3.25;;;;;;;22.88;83.42;101216.63;5057202;28;20040;-72
2022/07/31 08:19:57;;;;;;;7.60;2.90;;;;;;;22.91;83.40;101218.53;5050063;28;20048;-72
2022/07/31 08:22:24;;;;;;;8.82;3.35;;;;;;;22.93;83.73;101210.38;5061968;28;20107;-72
2022/07/31 08:24:50;;;;;;;3.80;2.05;;;;;;;22.84;82.80;101221.66;5056125;28;20060;-72
2022/07/31 08:27:23;;;;;;;6.22;1.67;;;;;;;22.83;83.08;101217.28;5060388;28;20048;-72
2022/07/31 08:30:06;;;;;;;4.45;2.45;;;;;;;22.72;83.90;101222.59;5057512;28;20513;-72
2022/07/31 08:32:33;;;;;;;9.70;3.30;;;;;;;22.86;83.31;101213.53;5063783;28;20084;-73
2022/07/31 08:35:00;;;;;;;6.13;3.00;;;;;;;22.77;84.04;101219.16;5055220;28;20076;-72
2022/07/31 08:37:26;;;;;;;3.58;1.80;;;;;;;22.77;83.71;101219.16;5061922;28;20537;-70
2022/07/31 08:40:13;;;;;;;4.60;2.30;;;;;;;22.87;83.16;101219.97;5050615;28;20057;-73
2022/07/31 08:42:40;;;;;;;9.82;3.00;;;;;;;22.77;84.15;101224.78;5063851;28;20461;-69
2022/07/31 08:45:08;;;;;;;7.10;3.10;;;;;;;23.09;83.74;101231.84;5051277;28;20509;-71
2022/07/31 08:47:35;;;;;;;5.95;1.67;;;;;;;23.10;82.36;101239.84;5065821;28;20115;-72
2022/07/31 08:50:04;;;;;;;5.47;2.72;;;;;;;23.11;82.10;101235.00;5067350;28;20074;-70
2022/07/31 08:52:33;;;;;;;6.05;2.90;;;;;;;23.12;82.76;101231.72;5048497;28;20085;-70
2022/07/31 08:55:04;;;;;;;7.93;3.35;;;;;;;23.12;83.47;101234.53;5062055;28;20060;-70
2022/07/31 08:57:31;;;;;;;1.92;1.40;;;;;;;22.93;85.60;101232.97;5065359;28;20041;-69
2022/07/31 08:59:58;;;;;;;1.17;0.90;;;;;;;22.90;87.14;101227.47;5064062;28;20082;-72
2022/07/31 09:02:25;;;;;;;2.00;1.15;;;;;;;22.78;88.18;101237.66;5065296;28;20087;-73
2022/07/31 09:04:51;;;;;;;4.65;2.00;;;;;;;22.83;88.70;101228.56;5068213;28;20052;-71
2022/07/31 09:07:18;;;;;;;3.95;2.25;;;;;;;22.84;88.46;101229.34;5060663;28;20052;-72
2022/07/31 09:09:48;;;;;;;3.03;1.60;;;;;;;22.73;89.82;101235.44;5056988;28;20390;-73
2022/07/31 09:12:29;;;;;;;11.50;3.28;;;;;;;22.78;91.88;101229.19;5058788;28;20072;-73
2022/07/31 09:14:59;;;;;;;9.07;2.97;;;;;;;22.91;91.86;101224.16;5059989;28;20139;-71
2022/07/31 09:17:35;;;;;;;9.50;3.80;;;;;;;22.96;90.59;101219.94;5058296;28;20486;-73
2022/07/31 09:20:04;;;;;;;7.70;3.35;;;;;;;22.98;91.07;101215.38;5056099;28;20132;-71
2022/07/31 09:22:31;;;;;;;11.98;3.10;;;;;;;23.08;91.57;101219.00;5057258;28;20048;-72
2022/07/31 09:25:10;;;;;;;9.32;4.10;;;;;;;23.08;91.34;101216.94;5056729;28;21129;-71
2022/07/31 09:27:38;;;;;;;9.90;3.55;;;;;;;23.18;91.76;101215.69;5052568;28;20051;-74
2022/07/31 09:30:06;;;;;;;7.90;2.30;;;;;;;22.94;93.05;101208.34;5052461;28;20135;-73
2022/07/31 09:32:32;;;;;;;4.30;2.33;;;;;;;22.83;92.82;101214.44;5054749;28;20053;-74
2022/07/31 09:35:08;;;;;;;4.68;2.30;;;;;;;22.87;94.03;101229.19;5056230;28;20106;-73
2022/07/31 09:37:35;;;;;;;9.80;4.07;;;;;;;22.88;95.13;101224.34;5053679;28;20064;-75
2022/07/31 09:40:03;;;;;;;7.13;3.60;;;;;;;22.81;93.89;101222.59;5059609;28;20055;-73
2022/07/31 09:42:37;;;;;;;6.22;2.90;;;;;;;22.73;94.82;101226.97;5055502;28;20041;-70
2022/07/31 09:45:18;;;;;;;7.53;4.25;;;;;;;22.98;94.75;101226.66;5053552;28;20504;-71
2022/07/31 09:47:45;;;;;;;7.15;3.70;;;;;;;22.98;95.00;101231.56;5057661;28;20041;-71
2022/07/31 09:50:13;;;;;;;6.78;2.95;;;;;;;22.90;94.09;101227.47;5058405;28;20131;-76
2022/07/31 09:52:39;;;;;;;5.32;2.47;;;;;;;23.00;93.31;101229.81;5058659;28;20052;-71
2022/07/31 09:55:06;;;;;;;9.55;3.67;;;;;;;23.07;94.11;101223.06;5059410;28;20159;-75
2022/07/31 09:57:59;;;;;;;6.97;3.35;;;;;;;23.18;93.39;101224.16;5061148;28;20132;-68
2022/07/31 10:00:26;;;;;;;4.55;2.50;;;;;;;23.12;93.21;101233.75;5052258;28;20144;-76
2022/07/31 10:02:54;;;;;;;8.75;4.40;;;;;;;23.19;92.22;101228.56;5064545;28;20076;-72
2022/07/31 10:05:26;;;;;;;4.03;2.42;;;;;;;23.07;92.80;101237.97;5058452;28;20536;-71
2022/07/31 10:07:56;;;;;;;3.10;1.15;;;;;;;23.22;92.51;101226.84;5028503;28;20040;-75
2022/07/31 10:10:23;;;;;;;7.18;2.80;;;;;;;23.36;92.23;101229.84;5032037;28;20516;-79
2022/07/31 10:12:52;;;;;;;13.70;5.13;;;;;;;23.52;90.86;101223.81;5039217;28;20067;-78
2022/07/31 10:15:21;;;;;;;2.58;1.77;;;;;;;23.39;92.61;101216.81;5031327;28;20409;-75
2022/07/31 10:17:50;;;;;;;5.93;2.58;;;;;;;23.47;92.16;101218.03;5029781;28;20055;-76
2022/07/31 10:20:20;;;;;;;8.00;3.83;;;;;;;23.60;92.50;101210.97;5030172;28;20048;-76
2022/07/31 10:22:52;;;;;;;6.43;2.63;;;;;;;23.54;92.42;101198.72;5028693;28;20051;-74
2022/07/31 10:25:27;;;;;;;3.80;2.03;;;;;;;23.62;91.80;101208.41;5028865;28;20133;-76
2022/07/31 10:27:56;;;;;;;1.67;0.75;;;;;;;23.86;90.04;101211.34;5028500;28;20052;-77
2022/07/31 10:30:24;;;;;;;9.10;4.45;;;;;;;23.93;90.08;101203.31;5029973;28;20140;-77
2022/07/31 10:32:55;;;;;;;5.07;2.55;;;;;;;23.86;89.07;101202.88;5029085;28;21187;-77
2022/07/31 10:35:21;;;;;;;5.72;3.13;;;;;;;24.06;88.29;101206.72;5031462;28;20226;-75
2022/07/31 10:38:10;;;;;;;3.78;2.13;;;;;;;24.00;86.03;101205.78;5030487;28;20182;-77
2022/07/31 10:41:02;;;;;;;8.50;3.60;;;;;;;24.43;84.55;101196.78;5030456;28;20160;-76
2022/07/31 10:43:45;;;;;;;9.35;3.88;;;;;;;24.63;84.12;101193.38;5031238;28;20067;-75
2022/07/31 10:46:12;;;;;;;4.22;1.95;;;;;;;24.56;83.97;101188.84;5025562;28;20048;-76
2022/07/31 10:48:50;;;;;;;10.13;4.18;;;;;;;24.74;83.17;101188.72;5028247;28;20048;-75
2022/07/31 10:51:16;;;;;;;3.33;2.08;;;;;;;24.54;81.40;101188.53;5034176;28;21225;-74
2022/07/31 10:54:04;;;;;;;4.95;2.58;;;;;;;24.56;80.63;101177.50;5048854;28;20133;-74
2022/07/31 10:56:42;;;;;;;11.63;3.90;;;;;;;24.66;80.13;101184.69;5039332;28;20106;-74
2022/07/31 10:59:10;;;;;;;6.13;2.30;;;;;;;24.74;79.42;101177.41;5036164;28;20135;-75
2022/07/31 11:01:48;;;;;;;6.55;2.90;;;;;;;24.74;79.15;101174.56;5039512;28;20056;-75
2022/07/31 11:04:26;;;;;;;7.95;3.33;;;;;;;24.84;77.98;101173.22;5043461;28;20872;-69
2022/07/31 11:06:53;;;;;;;8.77;3.42;;;;;;;24.87;78.63;101169.44;5040632;28;20560;-74
2022/07/31 11:09:24;;;;;;;9.30;3.63;;;;;;;24.81;78.07;101177.03;5054800;28;20909;-73
2022/07/31 11:11:52;;;;;;;9.30;3.92;;;;;;;24.71;78.93;101172.69;5035384;28;20159;-74
2022/07/31 11:14:37;;;;;;;8.68;3.88;;;;;;;24.80;79.11;101186.78;5050024;28;20052;-73
2022/07/31 11:17:04;;;;;;;11.20;3.63;;;;;;;24.93;78.91;101173.16;5050572;28;20481;-76
2022/07/31 11:19:42;;;;;;;6.43;2.95;;;;;;;24.74;79.65;101173.81;5030894;28;20063;-78
2022/07/31 11:22:14;;;;;;;7.85;3.08;;;;;;;24.78;81.35;101172.31;5044357;28;20167;-76
2022/07/31 11:24:59;;;;;;;6.53;3.10;;;;;;;24.68;80.09;101172.91;5045963;28;20559;-76
2022/07/31 11:27:33;;;;;;;7.47;2.80;;;;;;;24.74;81.66;101165.31;5045180;28;20048;-78
2022/07/31 11:30:07;;;;;;;6.85;1.92;;;;;;;24.56;82.33;101169.03;5037789;28;20122;-76
2022/07/31 11:32:40;;;;;;;6.80;3.20;;;;;;;24.77;82.45;101176.44;5041681;28;20094;-76
2022/07/31 11:35:07;;;;;;;5.28;2.90;;;;;;;24.71;82.36;101171.94;5037531;28;20044;-75